Time;durP1;ratioP1;P1;durP2;ratioP2;P2;SDS_P1;SDS_P2;PMS_P1;PMS_P2;Temp;Humidity;BMP_temperature;BMP_pressure;BME280_temperature;BME280_humidity;BME280_pressure;Samples;Min_cycle;Max_cycle;Signal;HPM_P1;HPM_P2
2022/10/15 00:01:25;;;;;;;4.20;3.80;;;15.20;99.90;;;;;;5090229;28;20464;-72
2022/10/15 00:03:51;;;;;;;6.40;3.77;;;15.20;99.90;;;;;;5068090;28;20795;-72
2022/10/15 00:06:21;;;;;;;4.77;3.90;;;15.20;99.90;;;;;;5098017;28;20434;-72
2022/10/15 00:08:51;;;;;;;5.10;4.13;;;15.20;99.90;;;;;;5086699;28;20436;-72
2022/10/15 00:11:27;;;;;;;10.47;4.20;;;15.10;99.90;;;;;;5103372;28;20426;-72
2022/10/15 00:13:55;;;;;;;4.00;3.60;;;15.20;99.90;;;;;;5088539;28;20644;-72
2022/10/15 00:16:23;;;;;;;4.40;3.63;;;15.10;99.90;;;;;;5074954;28;20921;-72
2022/10/15 00:18:50;;;;;;;5.10;4.60;;;15.20;99.90;;;;;;5090409;28;20441;-72
2022/10/15 00:21:18;;;;;;;7.00;3.57;;;15.10;99.90;;;;;;5077634;28;20496;-72
2022/10/15 00:23:46;;;;;;;4.27;3.87;;;15.10;99.90;;;;;;5088797;28;20424;-72
2022/10/15 00:26:23;;;;;;;5.87;4.00;;;15.10;99.90;;;;;;5095840;28;20913;-72
2022/10/15 00:28:53;;;;;;;4.63;4.07;;;15.10;99.90;;;;;;5099546;28;20451;-72
2022/10/15 00:31:26;;;;;;;3.80;3.40;;;15.10;99.90;;;;;;5094630;28;20456;-72
2022/10/15 00:33:53;;;;;;;4.47;4.07;;;15.10;99.90;;;;;;5070228;28;20518;-72
2022/10/15 00:36:24;;;;;;;4.73;3.90;;;15.10;99.90;;;;;;5075988;28;20471;-72
2022/10/15 00:38:53;;;;;;;3.60;3.30;;;15.10;99.90;;;;;;5088676;28;20453;-72
2022/10/15 00:41:24;;;;;;;5.90;4.10;;;15.10;99.90;;;;;;5041643;28;20470;-72
2022/10/15 00:44:15;;;;;;;5.60;3.90;;;15.10;99.90;;;;;;5057365;28;20455;-72
2022/10/15 00:46:41;;;;;;;4.03;3.60;;;15.10;99.90;;;;;;5061107;28;20449;-72
2022/10/15 00:49:22;;;;;;;4.87;4.00;;;15.10;99.90;;;;;;5069148;28;20509;-72
2022/10/15 00:51:55;;;;;;;6.37;4.83;;;15.10;99.90;;;;;;5059275;28;20479;-72
2022/10/15 00:54:24;;;;;;;7.00;3.80;;;15.10;99.90;;;;;;5073721;28;20441;-72
2022/10/15 00:57:11;;;;;;;4.17;3.60;;;15.10;99.90;;;;;;5086973;28;20515;-72
2022/10/15 00:59:49;;;;;;;3.50;3.20;;;15.10;99.90;;;;;;5083955;28;20416;-72
2022/10/15 01:02:18;;;;;;;4.23;3.83;;;15.10;99.90;;;;;;5078785;28;20449;-72
2022/10/15 01:04:46;;;;;;;4.57;4.17;;;15.10;99.90;;;;;;5054637;28;20936;-73
2022/10/15 01:07:17;;;;;;;4.57;4.00;;;15.10;99.90;;;;;;5078005;28;20437;-72
2022/10/15 01:09:45;;;;;;;4.20;3.53;;;15.10;99.90;;;;;;5080370;28;20445;-72
2022/10/15 01:12:56;;;;;;;4.63;3.80;;;15.10;99.90;;;;;;5075261;28;20446;-72
2022/10/15 01:15:35;;;;;;;4.30;3.53;;;15.10;99.90;;;;;;5058253;28;20457;-72
2022/10/15 01:18:13;;;;;;;4.13;3.80;;;15.10;99.90;;;;;;5035729;28;20435;-72
2022/10/15 01:20:52;;;;;;;4.27;3.87;;;15.10;99.90;;;;;;5086971;28;20472;-72
2022/10/15 01:23:39;;;;;;;4.90;4.37;;;15.10;99.90;;;;;;5080117;28;20917;-72
2022/10/15 01:26:45;;;;;;;4.00;3.60;;;15.10;99.90;;;;;;5079456;28;20970;-72
2022/10/15 01:29:30;;;;;;;4.53;4.13;;;15.00;99.90;;;;;;5081765;28;20475;-72
2022/10/15 01:32:15;;;;;;;4.63;3.80;;;15.00;99.90;;;;;;5084524;28;20439;-72
2022/10/15 01:35:09;;;;;;;4.00;3.60;;;15.00;99.90;;;;;;5081247;28;20413;-72
2022/10/15 01:38:00;;;;;;;3.70;3.40;;;15.00;99.90;;;;;;5056366;28;20533;-72
2022/10/15 01:41:02;;;;;;;3.87;3.47;;;15.00;99.90;;;;;;5065685;28;20453;-72
2022/10/15 01:43:40;;;;;;;4.77;3.93;;;15.00;99.90;;;;;;5059781;28;20436;-72
2022/10/15 01:46:52;;;;;;;4.10;3.70;;;15.00;99.90;;;;;;5087081;28;20413;-72
2022/10/15 01:49:26;;;;;;;4.87;4.03;;;15.00;99.90;;;;;;5068258;28;20473;-72
2022/10/15 01:51:56;;;;;;;5.43;3.70;;;15.00;99.90;;;;;;5074766;28;20770;-72
2022/10/15 01:54:27;;;;;;;4.70;4.00;;;15.00;99.90;;;;;;5071871;28;20406;-72
2022/10/15 01:56:57;;;;;;;4.67;4.27;;;15.00;99.90;;;;;;5071995;28;20455;-72
2022/10/15 01:59:28;;;;;;;4.23;3.20;;;15.00;99.90;;;;;;5071663;28;20834;-72
2022/10/15 02:01:54;;;;;;;4.80;4.30;;;15.00;99.90;;;;;;5081413;28;20407;-72
2022/10/15 02:04:26;;;;;;;4.33;3.67;;;15.00;99.90;;;;;;5070331;28;20492;-72
2022/10/15 02:07:10;;;;;;;4.60;3.73;;;15.00;99.90;;;;;;5070680;28;20543;-72
2022/10/15 02:09:41;;;;;;;4.10;3.70;;;15.00;99.90;;;;;;5041927;28;20482;-72
2022/10/15 02:12:45;;;;;;;4.10;3.70;;;15.00;99.90;;;;;;5089038;28;20432;-72
2022/10/15 02:15:22;;;;;;;3.97;3.60;;;15.00;99.90;;;;;;5069665;28;20434;-72
2022/10/15 02:17:58;;;;;;;5.30;3.57;;;15.00;99.90;;;;;;5054377;28;20507;-72
2022/10/15 02:20:51;;;;;;;6.40;4.00;;;15.00;99.90;;;;;;5069102;28;20891;-71
2022/10/15 02:23:24;;;;;;;3.93;3.53;;;15.00;99.90;;;;;;5074920;28;20497;-71
2022/10/15 02:25:53;;;;;;;3.97;3.57;;;15.00;99.90;;;;;;5059180;28;20512;-72
2022/10/15 02:28:24;;;;;;;4.87;3.80;;;15.00;99.90;;;;;;5091474;28;20421;-72
2022/10/15 02:30:55;;;;;;;3.97;3.60;;;14.90;99.90;;;;;;5066483;28;20474;-72
2022/10/15 02:33:25;;;;;;;4.03;3.43;;;15.00;99.90;;;;;;5063683;28;20427;-72
2022/10/15 02:35:54;;;;;;;3.70;3.10;;;14.90;99.90;;;;;;5054941;28;20464;-72
2022/10/15 02:38:25;;;;;;;5.17;3.37;;;14.90;99.90;;;;;;5074362;28;20463;-72
2022/10/15 02:40:57;;;;;;;5.77;4.23;;;14.90;99.90;;;;;;5074721;28;20992;-72
2022/10/15 02:43:23;;;;;;;3.73;3.43;;;15.00;99.90;;;;;;5089827;28;20947;-72
2022/10/15 02:45:50;;;;;;;4.87;4.37;;;15.00;99.90;;;;;;5054577;28;20423;-72
2022/10/15 02:48:18;;;;;;;3.97;3.57;;;15.00;99.90;;;;;;5050855;28;20479;-72
2022/10/15 02:50:46;;;;;;;3.30;3.00;;;15.00;99.90;;;;;;5071858;28;20429;-72
2022/10/15 02:53:13;;;;;;;3.80;3.40;;;14.90;99.90;;;;;;5070865;28;20444;-72
2022/10/15 02:55:44;;;;;;;4.90;3.30;;;14.90;99.90;;;;;;5083546;28;20546;-72
2022/10/15 02:58:11;;;;;;;4.10;3.60;;;14.90;99.90;;;;;;5058754;28;20445;-72
2022/10/15 03:00:37;;;;;;;4.27;3.30;;;14.90;99.90;;;;;;5084215;28;20537;-72
2022/10/15 03:03:05;;;;;;;4.37;3.77;;;14.90;99.90;;;;;;5070995;28;20413;-72
2022/10/15 03:05:34;;;;;;;3.80;3.50;;;14.90;99.90;;;;;;5045364;28;20971;-72
2022/10/15 03:08:00;;;;;;;5.50;3.93;;;14.90;99.90;;;;;;5086645;28;20436;-72
2022/10/15 03:10:29;;;;;;;4.10;3.73;;;14.90;99.90;;;;;;5078150;28;20451;-72
2022/10/15 03:13:04;;;;;;;4.10;3.33;;;14.90;99.90;;;;;;5061982;28;20417;-72
2022/10/15 03:15:35;;;;;;;3.37;3.07;;;14.90;99.90;;;;;;5056406;28;20473;-72
2022/10/15 03:18:04;;;;;;;3.77;3.40;;;14.90;99.90;;;;;;5062176;28;20487;-72
2022/10/15 03:20:30;;;;;;;5.47;4.00;;;14.90;99.90;;;;;;5087877;28;20493;-72
2022/10/15 03:22:56;;;;;;;4.30;3.90;;;14.90;99.90;;;;;;5053858;28;20895;-72
2022/10/15 03:25:22;;;;;;;3.93;3.37;;;14.90;99.90;;;;;;5065429;28;20438;-72
2022/10/15 03:28:27;;;;;;;4.10;3.70;;;14.90;99.90;;;;;;5016592;28;20621;-72
2022/10/15 03:30:58;;;;;;;4.60;3.80;;;14.90;99.90;;;;;;5016343;28;20430;-72
2022/10/15 03:33:27;;;;;;;3.50;2.90;;;14.90;99.90;;;;;;5067884;28;20552;-72
2022/10/15 03:35:56;;;;;;;4.87;3.50;;;14.90;99.90;;;;;;5086250;28;20448;-72
2022/10/15 03:38:25;;;;;;;4.17;3.77;;;14.90;99.90;;;;;;5054945;28;20446;-72
2022/10/15 03:40:52;;;;;;;3.77;3.37;;;14.90;99.90;;;;;;5051776;28;20572;-72
2022/10/15 03:43:30;;;;;;;3.73;3.33;;;14.90;99.90;;;;;;5071613;28;20441;-72
2022/10/15 03:46:06;;;;;;;4.17;3.80;;;14.90;99.90;;;;;;5072143;28;20789;-72
2022/10/15 03:48:37;;;;;;;3.90;3.50;;;14.90;99.90;;;;;;5069056;28;20446;-72
2022/10/15 03:51:03;;;;;;;5.43;3.53;;;14.90;99.90;;;;;;5045129;28;20667;-72
2022/10/15 03:53:29;;;;;;;4.00;3.60;;;14.90;99.90;;;;;;5033692;28;20416;-72
2022/10/15 03:56:01;;;;;;;3.40;3.17;;;14.90;99.90;;;;;;5050626;28;20420;-72
2022/10/15 03:58:29;;;;;;;5.00;3.73;;;14.80;99.90;;;;;;5056217;28;20457;-72
2022/10/15 04:00:58;;;;;;;4.57;3.90;;;14.90;99.90;;;;;;5063867;28;20547;-72
2022/10/15 04:03:24;;;;;;;4.70;3.60;;;14.90;99.90;;;;;;5050557;28;20439;-72
2022/10/15 04:05:53;;;;;;;4.13;3.37;;;14.90;99.90;;;;;;5068796;28;20806;-72
2022/10/15 04:08:23;;;;;;;3.77;3.47;;;14.80;99.90;;;;;;5084289;28;20444;-72
2022/10/15 04:10:52;;;;;;;6.60;4.17;;;14.80;99.90;;;;;;5072021;28;20800;-72
2022/10/15 04:13:18;;;;;;;4.57;4.13;;;14.80;99.90;;;;;;5086595;28;20172;-72
2022/10/15 04:15:47;;;;;;;4.00;3.60;;;14.80;99.90;;;;;;5055108;28;20423;-72
2022/10/15 04:18:15;;;;;;;4.80;4.33;;;14.90;99.90;;;;;;5037778;28;20543;-72
2022/10/15 04:20:44;;;;;;;4.03;3.63;;;14.80;99.90;;;;;;5075652;28;20470;-72
2022/10/15 04:23:14;;;;;;;4.80;3.70;;;14.80;99.90;;;;;;5066370;28;20974;-72
2022/10/15 04:26:19;;;;;;;4.97;4.40;;;14.80;99.90;;;;;;5049064;28;20414;-72
2022/10/15 04:28:49;;;;;;;4.60;3.70;;;14.80;99.90;;;;;;5046353;28;20448;-72
2022/10/15 04:31:16;;;;;;;4.10;3.70;;;14.80;99.90;;;;;;5030972;28;20491;-72
2022/10/15 04:33:42;;;;;;;5.40;3.80;;;14.80;99.90;;;;;;5039693;28;20419;-72
2022/10/15 04:36:12;;;;;;;4.10;3.70;;;14.80;99.90;;;;;;5038307;28;21069;-72
2022/10/15 04:39:05;;;;;;;3.40;2.93;;;14.80;99.90;;;;;;5018642;28;20430;-71
2022/10/15 04:41:39;;;;;;;5.87;3.93;;;14.80;99.90;;;;;;5021443;28;20461;-72
2022/10/15 04:44:23;;;;;;;4.47;4.07;;;14.80;99.90;;;;;;5005889;28;20443;-72
2022/10/15 04:47:00;;;;;;;5.20;4.23;;;14.80;99.90;;;;;;5028027;28;20446;-72
2022/10/15 04:49:46;;;;;;;6.37;3.83;;;14.70;99.90;;;;;;5066916;28;20509;-72
2022/10/15 04:52:52;;;;;;;4.50;4.10;;;14.80;99.90;;;;;;5042605;28;20457;-72
2022/10/15 04:55:21;;;;;;;5.27;4.00;;;14.80;99.90;;;;;;5027160;28;20430;-72
2022/10/15 04:57:47;;;;;;;4.50;4.10;;;14.80;99.90;;;;;;5002449;28;20473;-72
2022/10/15 05:00:15;;;;;;;3.67;3.30;;;14.80;99.90;;;;;;5018302;28;20564;-72
2022/10/15 05:02:43;;;;;;;3.57;3.27;;;14.80;99.90;;;;;;5067363;28;20453;-72
2022/10/15 05:05:19;;;;;;;4.37;3.97;;;14.80;99.90;;;;;;5072669;28;20413;-72
2022/10/15 05:07:57;;;;;;;4.40;4.00;;;14.80;99.90;;;;;;5040875;28;20445;-72
2022/10/15 05:10:23;;;;;;;3.70;3.30;;;14.80;99.90;;;;;;5055900;28;20455;-72
2022/10/15 05:12:54;;;;;;;5.00;4.40;;;14.70;99.90;;;;;;5072671;28;20437;-72
2022/10/15 05:15:30;;;;;;;4.93;3.83;;;14.70;99.90;;;;;;5072277;28;20544;-72
2022/10/15 05:17:56;;;;;;;4.70;3.90;;;14.80;99.90;;;;;;5055482;28;20536;-72
2022/10/15 05:20:31;;;;;;;4.43;3.83;;;14.80;99.90;;;;;;5072475;28;20457;-72
2022/10/15 05:22:57;;;;;;;5.30;4.40;;;14.80;99.90;;;;;;5085349;28;20412;-72
2022/10/15 05:25:36;;;;;;;3.97;3.67;;;14.80;99.90;;;;;;5074960;28;20457;-72
2022/10/15 05:28:04;;;;;;;4.47;4.07;;;14.80;99.90;;;;;;5067715;28;21010;-71
2022/10/15 05:30:36;;;;;;;3.97;3.53;;;14.70;99.90;;;;;;5069077;28;20811;-72
2022/10/15 05:33:03;;;;;;;4.17;3.77;;;14.80;99.90;;;;;;5069018;28;20447;-72
2022/10/15 05:35:29;;;;;;;4.30;3.90;;;14.80;99.90;;;;;;5076142;28;20429;-72
2022/10/15 05:37:59;;;;;;;4.30;3.90;;;14.80;99.90;;;;;;5083799;28;20526;-72
2022/10/15 05:40:25;;;;;;;4.50;3.87;;;14.80;99.90;;;;;;5055336;28;20574;-72
2022/10/15 05:43:03;;;;;;;4.80;3.90;;;14.80;99.90;;;;;;5071877;28;20462;-72
2022/10/15 05:45:29;;;;;;;5.30;4.80;;;14.80;99.90;;;;;;5055609;28;20405;-72
2022/10/15 05:48:01;;;;;;;4.47;4.07;;;14.70;99.90;;;;;;5071879;28;20433;-72
2022/10/15 05:50:30;;;;;;;4.17;3.37;;;14.80;99.90;;;;;;5084883;22;20509;-71
2022/10/15 05:53:05;;;;;;;5.20;4.70;;;14.80;99.90;;;;;;5040022;28;20425;-72
2022/10/15 05:55:41;;;;;;;5.07;3.93;;;14.80;99.90;;;;;;5068562;28;20471;-72
2022/10/15 05:58:07;;;;;;;4.47;3.77;;;14.80;99.90;;;;;;5055411;28;20520;-72
2022/10/15 06:00:38;;;;;;;5.00;4.07;;;14.80;99.90;;;;;;5071764;28;20452;-72
2022/10/15 06:03:04;;;;;;;4.20;3.80;;;14.80;99.90;;;;;;5071661;28;20417;-71
2022/10/15 06:05:31;;;;;;;5.20;3.90;;;14.80;99.90;;;;;;5055053;28;20505;-71
2022/10/15 06:07:59;;;;;;;4.40;4.00;;;14.80;99.90;;;;;;5072629;28;20487;-71
2022/10/15 06:10:43;;;;;;;4.57;3.60;;;14.80;99.90;;;;;;5056698;28;20434;-71
2022/10/15 06:13:09;;;;;;;4.53;3.60;;;14.80;99.90;;;;;;5071280;28;20429;-71
2022/10/15 06:15:42;;;;;;;4.33;3.93;;;14.70;99.90;;;;;;5069912;28;20512;-70
2022/10/15 06:18:15;;;;;;;4.33;3.93;;;14.80;99.90;;;;;;5057445;28;20599;-71
2022/10/15 06:20:42;;;;;;;5.27;3.83;;;14.70;99.90;;;;;;5060296;28;20986;-71
2022/10/15 06:23:10;;;;;;;6.37;4.70;;;14.70;99.90;;;;;;5061690;28;20804;-71
2022/10/15 06:25:39;;;;;;;4.73;3.40;;;14.70;99.90;;;;;;5068633;28;20428;-72
2022/10/15 06:28:06;;;;;;;4.93;4.53;;;14.70;99.90;;;;;;5068017;28;20450;-72
2022/10/15 06:30:40;;;;;;;4.30;3.90;;;14.70;99.90;;;;;;5068115;28;20906;-72
2022/10/15 06:33:06;;;;;;;4.53;4.13;;;14.70;99.90;;;;;;5069782;28;20431;-72
2022/10/15 06:35:34;;;;;;;4.03;3.53;;;14.70;99.90;;;;;;5039106;28;20946;-72
2022/10/15 06:38:06;;;;;;;4.47;3.80;;;14.70;99.90;;;;;;5049234;28;20456;-72
2022/10/15 06:40:32;;;;;;;4.10;3.63;;;14.70;99.90;;;;;;5043386;28;20454;-71
2022/10/15 06:43:09;;;;;;;4.17;3.70;;;14.70;99.90;;;;;;5065015;28;20410;-72
2022/10/15 06:45:41;;;;;;;6.80;4.40;;;14.70;99.90;;;;;;5068240;28;20455;-72
2022/10/15 06:48:16;;;;;;;5.83;5.23;;;14.70;99.90;;;;;;5031611;28;20457;-72
2022/10/15 06:50:44;;;;;;;4.80;4.30;;;14.70;99.90;;;;;;5065367;28;20434;-72
2022/10/15 06:53:15;;;;;;;4.40;3.47;;;14.70;99.90;;;;;;5048119;28;20425;-72
2022/10/15 06:55:44;;;;;;;4.00;3.60;;;14.70;99.90;;;;;;5069829;28;20456;-72
2022/10/15 06:58:45;;;;;;;3.93;3.53;;;14.70;99.90;;;;;;5026187;28;20768;-72
2022/10/15 07:01:14;;;;;;;6.07;4.30;;;14.70;99.90;;;;;;5027776;28;20830;-72
2022/10/15 07:03:47;;;;;;;5.43;4.40;;;14.70;99.90;;;;;;5049776;28;20413;-72
2022/10/15 07:06:34;;;;;;;5.33;4.53;;;14.70;99.90;;;;;;5049890;28;20898;-72
2022/10/15 07:09:04;;;;;;;5.63;4.47;;;14.70;99.90;;;;;;5015282;28;20421;-72
2022/10/15 07:11:30;;;;;;;5.90;5.07;;;14.70;99.90;;;;;;5046770;28;20439;-72
2022/10/15 07:13:58;;;;;;;4.10;3.70;;;14.70;99.90;;;;;;5068101;28;20436;-72
2022/10/15 07:16:29;;;;;;;4.77;4.13;;;14.70;99.90;;;;;;5051332;28;20921;-72
2022/10/15 07:18:55;;;;;;;5.00;4.03;;;14.70;99.90;;;;;;5047606;28;20819;-72
2022/10/15 07:21:21;;;;;;;6.03;4.50;;;14.60;99.90;;;;;;5061430;28;20495;-72
2022/10/15 07:24:10;;;;;;;5.30;4.70;;;14.70;99.90;;;;;;5012877;28;20917;-72
2022/10/15 07:26:36;;;;;;;5.30;4.70;;;14.70;99.90;;;;;;5009848;28;20457;-72
2022/10/15 07:29:03;;;;;;;7.57;4.50;;;14.70;99.90;;;;;;5008044;28;20844;-72
2022/10/15 07:31:29;;;;;;;4.67;4.10;;;14.70;99.90;;;;;;5010018;28;20438;-71
2022/10/15 07:33:55;;;;;;;5.20;4.70;;;14.70;99.90;;;;;;5026317;28;20439;-71
2022/10/15 07:36:21;;;;;;;5.93;4.67;;;14.70;99.90;;;;;;5026689;28;20439;-71
2022/10/15 07:38:47;;;;;;;9.47;5.17;;;14.70;99.90;;;;;;5026938;28;20425;-71
2022/10/15 07:41:19;;;;;;;5.60;4.17;;;14.70;99.90;;;;;;5026685;28;20474;-71
2022/10/15 07:43:45;;;;;;;6.03;5.30;;;14.70;99.90;;;;;;5030214;28;20520;-72
2022/10/15 07:46:14;;;;;;;5.57;4.80;;;14.70;99.90;;;;;;5030450;28;20943;-72
2022/10/15 07:48:40;;;;;;;6.17;4.97;;;14.70;99.90;;;;;;5014426;28;20463;-72
2022/10/15 07:51:07;;;;;;;7.43;6.13;;;14.70;99.90;;;;;;5014327;28;21142;-72
2022/10/15 07:53:37;;;;;;;6.67;5.60;;;14.80;99.90;;;;;;5030502;28;20427;-72
2022/10/15 07:56:09;;;;;;;8.83;5.00;;;14.80;99.90;;;;;;5015413;28;20454;-72
2022/10/15 07:58:38;;;;;;;6.60;5.70;;;14.80;99.90;;;;;;5016392;28;20427;-72
2022/10/15 08:01:09;;;;;;;7.30;5.77;;;14.80;99.90;;;;;;5031351;28;20466;-72
2022/10/15 08:03:36;;;;;;;6.80;6.10;;;14.70;99.90;;;;;;5068318;28;20955;-72
2022/10/15 08:06:04;;;;;;;8.40;6.77;;;14.80;99.90;;;;;;5074371;28;20433;-72
2022/10/15 08:08:30;;;;;;;7.83;6.20;;;14.80;99.90;;;;;;5073567;28;20512;-72
2022/10/15 08:11:07;;;;;;;7.63;6.67;;;14.80;99.90;;;;;;5073518;28;20920;-72
2022/10/15 08:13:33;;;;;;;7.70;6.90;;;14.80;99.90;;;;;;5057142;28;20446;-73
2022/10/15 08:16:25;;;;;;;8.20;7.23;;;14.80;99.90;;;;;;5035300;28;20439;-74
2022/10/15 08:18:58;;;;;;;7.87;6.80;;;14.80;99.90;;;;;;5073319;28;20453;-73
2022/10/15 08:21:28;;;;;;;8.83;7.30;;;14.80;99.90;;;;;;5073230;28;20481;-72
2022/10/15 08:23:56;;;;;;;7.87;6.50;;;14.80;99.90;;;;;;5073556;28;20417;-74
2022/10/15 08:26:33;;;;;;;8.97;8.07;;;14.80;99.90;;;;;;5073624;28;20448;-72
2022/10/15 08:29:03;;;;;;;9.80;7.60;;;14.80;99.90;;;;;;5056916;28;20823;-73
2022/10/15 08:31:52;;;;;;;9.40;6.90;;;14.90;99.90;;;;;;5061285;28;20427;-72
2022/10/15 08:34:25;;;;;;;7.20;6.47;;;14.90;99.90;;;;;;5056557;28;20876;-72
2022/10/15 08:36:54;;;;;;;7.97;7.07;;;14.90;99.90;;;;;;5089678;28;20454;-71
2022/10/15 08:39:20;;;;;;;9.63;7.00;;;14.90;99.90;;;;;;5069472;28;20422;-73
2022/10/15 08:42:05;;;;;;;8.83;6.40;;;14.90;99.90;;;;;;5031641;28;20534;-72
2022/10/15 08:44:44;;;;;;;7.47;6.07;;;14.90;99.90;;;;;;5036991;28;20534;-71
2022/10/15 08:47:21;;;;;;;8.00;6.80;;;14.90;99.90;;;;;;5042128;28;20442;-71
2022/10/15 08:49:58;;;;;;;8.30;6.40;;;14.90;99.90;;;;;;5056047;28;20934;-71
2022/10/15 08:52:48;;;;;;;8.33;6.17;;;14.90;99.90;;;;;;5039483;28;20444;-71
2022/10/15 08:55:22;;;;;;;6.00;5.40;;;15.00;99.90;;;;;;5074209;28;20915;-72
2022/10/15 08:57:56;;;;;;;5.93;5.37;;;15.00;99.90;;;;;;5072887;28;20434;-73
2022/10/15 09:00:29;;;;;;;6.60;5.90;;;15.00;99.90;;;;;;5073980;28;20451;-73
2022/10/15 09:03:32;;;;;;;7.10;5.27;;;15.00;99.90;;;;;;5074566;28;20411;-77
2022/10/15 09:06:21;;;;;;;5.90;4.70;;;15.00;99.90;;;;;;5073969;28;20433;-73
2022/10/15 09:09:10;;;;;;;7.77;5.30;;;15.00;99.90;;;;;;5072823;28;20395;-73
2022/10/15 09:12:13;;;;;;;6.77;4.30;;;15.00;99.90;;;;;;5054725;28;20425;-74
2022/10/15 09:14:45;;;;;;;5.60;5.03;;;15.00;99.90;;;;;;5073559;28;20417;-74
2022/10/15 09:17:26;;;;;;;9.37;4.27;;;15.10;99.90;;;;;;5072215;28;20495;-74
2022/10/15 09:20:05;;;;;;;5.20;4.17;;;15.10;99.90;;;;;;5065369;28;20464;-74
2022/10/15 09:22:35;;;;;;;5.73;4.67;;;15.10;99.90;;;;;;5056203;28;20488;-73
2022/10/15 09:25:23;;;;;;;5.07;4.17;;;15.10;99.90;;;;;;5042786;28;20977;-73
2022/10/15 09:27:51;;;;;;;5.00;3.97;;;15.10;99.90;;;;;;5072061;28;20440;-74
2022/10/15 09:30:37;;;;;;;4.80;3.70;;;15.10;99.90;;;;;;5059261;28;20411;-74
2022/10/15 09:33:31;;;;;;;4.63;3.70;;;15.20;99.90;;;;;;5050892;28;20453;-74
2022/10/15 09:36:32;;;;;;;3.97;3.13;;;15.20;99.90;;;;;;5072658;28;20450;-74
2022/10/15 09:39:32;;;;;;;3.20;2.90;;;15.20;99.90;;;;;;5062067;28;20496;-74
2022/10/15 09:42:29;;;;;;;3.37;3.00;;;15.20;99.90;;;;;;5041600;28;20476;-74
2022/10/15 09:45:00;;;;;;;3.73;3.37;;;15.30;99.90;;;;;;5051962;28;20422;-74
2022/10/15 09:47:29;;;;;;;3.07;2.77;;;15.30;99.90;;;;;;5070660;28;20673;-74
2022/10/15 09:50:06;;;;;;;3.20;2.87;;;15.30;99.90;;;;;;5065916;28;20439;-73
2022/10/15 09:53:09;;;;;;;5.10;2.27;;;15.30;99.90;;;;;;5066063;28;20433;-74
2022/10/15 09:55:50;;;;;;;3.53;2.50;;;15.30;99.90;;;;;;5069806;28;20757;-74
2022/10/15 09:58:29;;;;;;;4.20;2.40;;;15.30;99.90;;;;;;5071643;28;20437;-73
2022/10/15 10:01:06;;;;;;;3.80;2.53;;;15.30;99.90;;;;;;5072418;28;20493;-73
2022/10/15 10:03:38;;;;;;;3.57;2.40;;;15.30;99.90;;;;;;5072630;28;20438;-74
2022/10/15 10:06:12;;;;;;;2.33;2.07;;;15.30;99.90;;;;;;5070266;28;20507;-74
2022/10/15 10:09:00;;;;;;;2.70;2.23;;;15.40;99.90;;;;;;5051632;28;20431;-74
2022/10/15 10:11:44;;;;;;;2.00;1.67;;;15.40;99.90;;;;;;5068704;28;20427;-74
2022/10/15 10:14:24;;;;;;;1.90;1.63;;;15.40;99.90;;;;;;5071352;28;20422;-74
2022/10/15 10:17:27;;;;;;;1.90;1.67;;;15.40;99.90;;;;;;5067353;28;20491;-73
2022/10/15 10:20:08;;;;;;;2.07;1.87;;;15.40;99.90;;;;;;5037565;28;20460;-73
2022/10/15 10:22:53;;;;;;;2.33;2.13;;;15.40;99.90;;;;;;5054321;28;20497;-74
2022/10/15 10:25:26;;;;;;;2.10;1.83;;;15.40;99.90;;;;;;5057707;28;20465;-73
2022/10/15 10:28:23;;;;;;;1.60;1.30;;;15.50;99.90;;;;;;5067252;28;20951;-74
2022/10/15 10:31:02;;;;;;;1.67;1.33;;;15.40;99.90;;;;;;5072214;28;20447;-73
2022/10/15 10:33:46;;;;;;;2.00;1.40;;;15.40;99.90;;;;;;5054487;28;20456;-73
2022/10/15 10:36:32;;;;;;;2.60;1.73;;;15.50;99.90;;;;;;5053852;28;20850;-74
2022/10/15 10:39:37;;;;;;;1.50;1.33;;;15.50;99.90;;;;;;5061509;28;20467;-73
2022/10/15 10:42:09;;;;;;;1.70;1.60;;;15.50;99.90;;;;;;5054313;28;20942;-74
2022/10/15 10:44:40;;;;;;;1.97;1.70;;;15.50;99.90;;;;;;5071025;28;20966;-74
2022/10/15 10:47:09;;;;;;;1.53;1.33;;;15.50;99.90;;;;;;5054261;28;20474;-73
2022/10/15 10:49:38;;;;;;;1.53;1.40;;;15.50;99.90;;;;;;5070827;28;20436;-74
2022/10/15 10:52:35;;;;;;;2.30;1.60;;;15.50;99.90;;;;;;5054291;28;20911;-74
2022/10/15 10:55:09;;;;;;;1.93;1.33;;;15.50;99.90;;;;;;5071108;28;20523;-74
2022/10/15 10:57:49;;;;;;;2.07;1.60;;;15.50;99.90;;;;;;5071551;28;20435;-73
2022/10/15 11:00:43;;;;;;;2.10;1.60;;;15.50;99.90;;;;;;5071932;28;20448;-74
2022/10/15 11:03:35;;;;;;;2.67;1.37;;;15.60;99.90;;;;;;5071678;28;21004;-74
2022/10/15 11:06:08;;;;;;;1.57;1.30;;;15.60;99.90;;;;;;5026841;28;20413;-73
2022/10/15 11:08:40;;;;;;;1.40;1.30;;;15.60;99.90;;;;;;5071188;28;20404;-73
2022/10/15 11:11:31;;;;;;;1.20;1.10;;;15.60;99.90;;;;;;5070552;28;20446;-74
2022/10/15 11:14:02;;;;;;;1.40;1.20;;;15.60;99.90;;;;;;5070458;28;20974;-74
2022/10/15 11:16:41;;;;;;;1.47;1.30;;;15.60;99.90;;;;;;5070106;28;20446;-74
2022/10/15 11:19:09;;;;;;;1.20;1.10;;;15.60;99.90;;;;;;5052893;28;20448;-74
2022/10/15 11:21:51;;;;;;;1.83;1.40;;;15.60;99.90;;;;;;5047948;28;20457;-74
2022/10/15 11:24:45;;;;;;;1.40;1.30;;;15.60;99.90;;;;;;5071143;28;20428;-74
2022/10/15 11:27:18;;;;;;;1.70;1.40;;;15.60;99.90;;;;;;5070464;28;20562;-74
2022/10/15 11:30:06;;;;;;;1.90;1.30;;;15.70;99.90;;;;;;5069496;28;20430;-74
2022/10/15 11:32:44;;;;;;;1.53;1.43;;;15.70;99.90;;;;;;5052797;28;20438;-74
2022/10/15 11:35:45;;;;;;;3.87;1.73;;;15.60;99.90;;;;;;5070101;28;20422;-74
2022/10/15 11:38:26;;;;;;;1.80;1.30;;;15.70;99.90;;;;;;5070108;28;20442;-74
2022/10/15 11:41:50;;;;;;;2.27;1.40;;;15.70;99.90;;;;;;4995544;28;20981;-74
2022/10/15 11:44:45;;;;;;;1.50;1.40;;;15.70;99.90;;;;;;5008550;28;20543;-74
2022/10/15 11:47:31;;;;;;;1.40;1.27;;;15.70;99.90;;;;;;5009191;28;21065;-73
2022/10/15 11:50:21;;;;;;;1.40;1.30;;;15.70;99.90;;;;;;4996584;28;20441;-73
2022/10/15 11:53:18;;;;;;;2.10;1.50;;;15.70;99.90;;;;;;4992055;28;20502;-74
2022/10/15 11:56:26;;;;;;;1.30;1.03;;;15.70;99.90;;;;;;5003050;28;20490;-74
2022/10/15 11:59:03;;;;;;;2.53;1.37;;;15.80;99.90;;;;;;5006557;28;20830;-74
2022/10/15 12:01:31;;;;;;;1.60;1.50;;;15.80;99.90;;;;;;4976674;28;20457;-74
2022/10/15 12:04:08;;;;;;;1.37;1.27;;;15.80;99.90;;;;;;4992571;28;20424;-74
2022/10/15 12:06:44;;;;;;;1.10;1.00;;;15.80;99.90;;;;;;5008893;28;20450;-74
2022/10/15 12:09:19;;;;;;;1.23;1.00;;;15.80;99.90;;;;;;4992898;28;20415;-74
2022/10/15 12:11:54;;;;;;;3.23;1.50;;;15.80;99.90;;;;;;5008932;28;20543;-74
2022/10/15 12:15:03;;;;;;;1.50;1.40;;;15.80;99.90;;;;;;5008937;28;20434;-74
2022/10/15 12:17:38;;;;;;;2.27;1.57;;;15.80;99.90;;;;;;5002210;28;20536;-74
2022/10/15 12:20:19;;;;;;;1.83;1.40;;;15.80;99.90;;;;;;5069636;28;20441;-74
2022/10/15 12:22:51;;;;;;;1.47;1.20;;;15.80;99.90;;;;;;5040579;28;20464;-74
2022/10/15 12:25:49;;;;;;;3.70;1.17;;;15.80;99.90;;;;;;5061247;28;20431;-74
2022/10/15 12:28:19;;;;;;;1.90;1.40;;;15.90;99.90;;;;;;5020745;28;20442;-74
2022/10/15 12:30:58;;;;;;;1.80;1.13;;;15.90;99.90;;;;;;5074588;28;20415;-74
2022/10/15 12:33:38;;;;;;;1.53;1.40;;;15.90;99.90;;;;;;5074201;28;20458;-74
2022/10/15 12:36:35;;;;;;;4.93;1.37;;;15.90;99.90;;;;;;5074700;28;20432;-74
2022/10/15 12:39:23;;;;;;;1.33;1.23;;;15.90;99.90;;;;;;5062186;28;20982;-74
2022/10/15 12:41:53;;;;;;;4.50;1.30;;;15.90;99.90;;;;;;5056268;28;20454;-74
2022/10/15 12:44:32;;;;;;;2.00;1.20;;;15.90;99.90;;;;;;5038836;28;20411;-74
2022/10/15 12:46:59;;;;;;;1.40;1.20;;;15.90;99.90;;;;;;5059239;28;20452;-74
2022/10/15 12:49:33;;;;;;;1.80;1.40;;;15.90;99.90;;;;;;5074309;28;20590;-74
2022/10/15 12:52:38;;;;;;;1.53;1.40;;;15.90;99.90;;;;;;5074459;28;20771;-74
2022/10/15 12:55:34;;;;;;;1.60;1.30;;;15.90;99.90;;;;;;5072974;28;20800;-74
2022/10/15 12:58:26;;;;;;;2.60;1.13;;;15.90;99.90;;;;;;5076836;28;20455;-74
2022/10/15 13:00:54;;;;;;;1.40;1.30;;;15.90;99.90;;;;;;5049850;28;20473;-74
2022/10/15 13:03:43;;;;;;;1.37;1.27;;;16.00;99.90;;;;;;5036799;28;20792;-74
2022/10/15 13:06:21;;;;;;;1.90;1.30;;;16.00;99.90;;;;;;5062218;28;20484;-74
2022/10/15 13:08:47;;;;;;;2.00;1.07;;;16.00;99.90;;;;;;5072603;28;20753;-74
2022/10/15 13:11:28;;;;;;;1.83;1.20;;;16.00;99.90;;;;;;5056151;28;20430;-74
2022/10/15 13:14:08;;;;;;;1.60;1.30;;;16.00;99.90;;;;;;5073738;28;20422;-73
2022/10/15 13:16:42;;;;;;;3.30;1.30;;;16.10;99.90;;;;;;5072650;28;20505;-73
2022/10/15 13:19:26;;;;;;;1.30;1.20;;;16.00;99.90;;;;;;5073805;28;20397;-74
2022/10/15 13:22:02;;;;;;;1.07;0.97;;;16.10;99.90;;;;;;5056405;28;20450;-74
2022/10/15 13:24:41;;;;;;;1.27;1.13;;;16.10;99.90;;;;;;5052214;28;20478;-74
2022/10/15 13:27:23;;;;;;;1.77;1.20;;;16.10;99.90;;;;;;5069220;28;20973;-74
2022/10/15 13:30:13;;;;;;;1.57;1.17;;;16.10;99.90;;;;;;5066498;28;20460;-74
2022/10/15 13:32:46;;;;;;;1.30;1.10;;;16.20;99.90;;;;;;5053923;28;20502;-74
2022/10/15 13:35:44;;;;;;;1.20;1.10;;;16.20;99.90;;;;;;5026583;28;20492;-74